Airfield :
LOGIN :

Register | Disclaimer

   EN    FR    IT 

 










Legend :    VFR   Marginal VFR   IFR   Intensive IFR   Very Intensive IFR
Visi :
Ceiling :
>= 8 km
>= 3000ft
5 to 8 km
1000 to 3000 ft
1500m to 5 km
500 to 1000 ft
800 to 1500m
200 to 500 ft
< 800m
< 200 ft
Symbols :   Thunderstorms  Fog  Heavy snow  Heavy precipitations  Wind > 20 kt
SIGMETs :     Misc.  Thunderstorms  Icing  Turbulence  Mountain Waves  Volcanic Ashes






- Airport Elevation : 913 ft


LFSX - Luxeuil

CURRENT METAR :
  • 300300Z AUTO 09004KT 9999 OVC040 12/11 Q1017

EXPIRED METARs :
  • 300230Z AUTO 12004KT 080V140 9999 OVC039 12/11 Q1018
  • 300200Z AUTO 11003KT 060V130 9999 OVC041 12/11 Q1018
  • 300130Z AUTO 10004KT 9999 OVC039 12/11 Q1018
  • 300100Z AUTO 09003KT 9999 OVC039 12/11 Q1018
  • 300030Z AUTO 10003KT 9999 FEW033 OVC039 12/11 Q1019

TAF TAF LFSX
Valid from the 29 at 21:00 until the 30 at 21:00 UTC


292000Z 2921/3021 13004KT 9999 BKN020
PROB40
TEMPO 2921/3008 4000 BR BKN007
BECMG 3008/3010 SCT025



MET'MAP, your aeronautical weather chart ! - Copyright ORBIFLY December 2007 - Disclaimer

ORBIFLY MET'MAP TEAM :

Programming & Development : Alexandra Zaïnal
Concept & original design : Baudouin d'Aumeries
Assistance for programming : Marc-Olivier Méhu
Technical & hardware support : Manuel Goepfert

Contact : metmap@orbifly.com




SOURCES & CREDITS :

   NOAA